Time;durP1;ratioP1;P1;durP2;ratioP2;P2;SDS_P1;SDS_P2;PMS_P1;PMS_P2;Temp;Humidity;BMP_temperature;BMP_pressure;BME280_temperature;BME280_humidity;BME280_pressure;Samples;Min_cycle;Max_cycle;Signal;HPM_P1;HPM_P2
2021/06/22 00:00:34;;;;;;;;;28.25;26.00;;;;;;;;4983601;28;8828;-84
2021/06/22 00:03:01;;;;;;;;;31.75;27.25;;;;;;;;4985799;28;9009;-81
2021/06/22 00:05:31;;;;;;;;;30.00;27.25;;;;;;;;4987343;28;8879;-81
2021/06/22 00:07:59;;;;;;;;;28.50;27.50;;;;;;;;4983769;28;8949;-81
2021/06/22 00:10:28;;;;;;;;;24.25;23.75;;;;;;;;4984856;28;8873;-81
2021/06/22 00:12:56;;;;;;;;;25.50;25.50;;;;;;;;4983073;28;8937;-83
2021/06/22 00:15:25;;;;;;;;;23.25;23.25;;;;;;;;4983354;28;8961;-90
2021/06/22 00:17:53;;;;;;;;;25.25;24.50;;;;;;;;4990241;28;8855;-82
2021/06/22 00:20:22;;;;;;;;;26.50;23.50;;;;;;;;4993143;28;9012;-85
2021/06/22 00:22:53;;;;;;;;;27.25;23.00;;;;;;;;4983964;28;8886;-84
2021/06/22 00:25:21;;;;;;;;;19.50;19.50;;;;;;;;4983623;28;8898;-82
2021/06/22 00:27:48;;;;;;;;;27.25;27.25;;;;;;;;4983710;28;8886;-83
2021/06/22 00:30:16;;;;;;;;;30.00;27.75;;;;;;;;4983442;28;8985;-82
2021/06/22 00:32:44;;;;;;;;;24.25;21.00;;;;;;;;4985006;28;9001;-83
2021/06/22 00:35:12;;;;;;;;;22.00;22.00;;;;;;;;4982656;28;8839;-82
2021/06/22 00:37:41;;;;;;;;;19.50;18.25;;;;;;;;4985445;28;8896;-83
2021/06/22 00:40:11;;;;;;;;;22.75;22.00;;;;;;;;4985380;28;8992;-82
2021/06/22 00:42:40;;;;;;;;;21.75;19.25;;;;;;;;4982309;28;8898;-82
2021/06/22 00:45:08;;;;;;;;;21.25;19.25;;;;;;;;4981612;28;8912;-83
2021/06/22 00:47:36;;;;;;;;;23.75;19.25;;;;;;;;4982398;28;8881;-83
2021/06/22 00:50:03;;;;;;;;;24.75;21.75;;;;;;;;4980557;28;9593;-85
2021/06/22 00:52:31;;;;;;;;;24.00;23.00;;;;;;;;4982853;28;9597;-83
2021/06/22 00:54:59;;;;;;;;;21.50;21.50;;;;;;;;4985038;28;8886;-84
2021/06/22 00:57:27;;;;;;;;;18.00;16.25;;;;;;;;4983574;28;8881;-82
2021/06/22 00:59:55;;;;;;;;;25.25;22.50;;;;;;;;4982837;28;8981;-84
2021/06/22 01:02:22;;;;;;;;;19.75;18.00;;;;;;;;4984321;28;8826;-83
2021/06/22 01:04:49;;;;;;;;;23.25;22.75;;;;;;;;4981780;28;9029;-83
2021/06/22 01:07:17;;;;;;;;;21.75;21.75;;;;;;;;4984304;28;8882;-82
2021/06/22 01:09:44;;;;;;;;;20.00;16.75;;;;;;;;4982478;28;9694;-82
2021/06/22 01:12:12;;;;;;;;;18.75;17.25;;;;;;;;4983218;28;8949;-82
2021/06/22 01:14:44;;;;;;;;;20.50;20.50;;;;;;;;4984341;28;8860;-82
2021/06/22 01:17:12;;;;;;;;;12.00;9.00;;;;;;;;4981495;28;8986;-83
2021/06/22 01:19:40;;;;;;;;;19.75;19.75;;;;;;;;4983882;28;8854;-83
2021/06/22 01:22:09;;;;;;;;;17.50;16.50;;;;;;;;4982318;28;8895;-82
2021/06/22 01:24:37;;;;;;;;;13.75;13.75;;;;;;;;4982492;28;8894;-82
2021/06/22 01:27:06;;;;;;;;;17.75;17.75;;;;;;;;4981165;28;8883;-82
2021/06/22 01:29:33;;;;;;;;;18.00;18.00;;;;;;;;4983944;28;8878;-83
2021/06/22 01:32:01;;;;;;;;;17.00;15.75;;;;;;;;4984558;28;8834;-82
2021/06/22 01:34:30;;;;;;;;;18.25;18.25;;;;;;;;4984061;28;8906;-82
2021/06/22 01:36:58;;;;;;;;;19.75;19.75;;;;;;;;4985477;28;8855;-85
2021/06/22 01:39:27;;;;;;;;;18.25;18.25;;;;;;;;4982238;28;8886;-81
2021/06/22 01:41:54;;;;;;;;;21.00;20.25;;;;;;;;4983136;28;8900;-85
2021/06/22 01:44:21;;;;;;;;;19.75;17.50;;;;;;;;4981798;28;8874;-82
2021/06/22 01:46:48;;;;;;;;;16.25;14.50;;;;;;;;4983114;28;8871;-83
2021/06/22 01:49:16;;;;;;;;;19.00;19.00;;;;;;;;4982989;28;8847;-82
2021/06/22 01:51:43;;;;;;;;;21.00;21.00;;;;;;;;4982705;28;8908;-82
2021/06/22 01:54:10;;;;;;;;;20.00;19.00;;;;;;;;4982848;28;8862;-81
2021/06/22 01:56:41;;;;;;;;;27.75;21.25;;;;;;;;4983790;28;9749;-82
2021/06/22 01:59:08;;;;;;;;;22.00;21.00;;;;;;;;4982474;28;8890;-82
2021/06/22 02:01:36;;;;;;;;;20.50;20.50;;;;;;;;4985540;28;9668;-82
2021/06/22 02:04:04;;;;;;;;;23.00;21.25;;;;;;;;4980971;28;8913;-81
2021/06/22 02:06:31;;;;;;;;;23.25;22.00;;;;;;;;4983630;28;8993;-82
2021/06/22 02:08:58;;;;;;;;;24.25;21.00;;;;;;;;4981683;28;8883;-82
2021/06/22 02:11:26;;;;;;;;;23.50;21.75;;;;;;;;4981383;28;8948;-84
2021/06/22 02:13:55;;;;;;;;;25.50;25.50;;;;;;;;4983725;28;8878;-82
2021/06/22 02:16:22;;;;;;;;;20.00;20.00;;;;;;;;4986760;28;8879;-82
2021/06/22 02:18:50;;;;;;;;;21.25;20.75;;;;;;;;4985470;28;8945;-83
2021/06/22 02:21:17;;;;;;;;;25.25;23.00;;;;;;;;4987689;28;9628;-83
2021/06/22 02:23:45;;;;;;;;;20.00;20.00;;;;;;;;4985839;28;8886;-82
2021/06/22 02:26:12;;;;;;;;;26.25;26.25;;;;;;;;4986722;28;8854;-80
2021/06/22 02:28:39;;;;;;;;;25.00;23.50;;;;;;;;4986223;28;8981;-80
2021/06/22 02:31:08;;;;;;;;;27.75;27.75;;;;;;;;4988568;28;8811;-84
2021/06/22 02:33:35;;;;;;;;;25.50;21.50;;;;;;;;4988290;28;8949;-83
2021/06/22 02:36:03;;;;;;;;;26.25;26.25;;;;;;;;4985065;28;8874;-85
2021/06/22 02:38:30;;;;;;;;;28.75;26.25;;;;;;;;4986447;28;8902;-82
2021/06/22 02:40:58;;;;;;;;;30.00;27.00;;;;;;;;4984140;28;8892;-85
2021/06/22 02:43:25;;;;;;;;;25.00;25.00;;;;;;;;4984621;28;8901;-82
2021/06/22 02:45:52;;;;;;;;;24.75;23.00;;;;;;;;4984851;28;8896;-83
2021/06/22 02:48:21;;;;;;;;;24.25;22.75;;;;;;;;4984123;28;8878;-82
2021/06/22 02:50:49;;;;;;;;;26.00;22.00;;;;;;;;4987051;28;8945;-81
2021/06/22 02:53:16;;;;;;;;;23.25;22.00;;;;;;;;4984613;28;8989;-83
2021/06/22 02:55:44;;;;;;;;;23.75;23.75;;;;;;;;4986790;28;8984;-83
2021/06/22 02:58:11;;;;;;;;;25.50;24.00;;;;;;;;4984235;28;8871;-82
2021/06/22 03:00:39;;;;;;;;;22.25;21.25;;;;;;;;4982616;28;8808;-85
2021/06/22 03:03:06;;;;;;;;;27.75;26.50;;;;;;;;4983039;28;8883;-85
2021/06/22 03:05:35;;;;;;;;;19.00;19.00;;;;;;;;4986318;28;8890;-86
2021/06/22 03:08:02;;;;;;;;;22.50;20.00;;;;;;;;4984944;28;8867;-88
2021/06/22 03:10:30;;;;;;;;;23.75;23.75;;;;;;;;4984897;28;8894;-90
2021/06/22 03:12:57;;;;;;;;;20.75;20.75;;;;;;;;4984453;28;8957;-85
2021/06/22 03:15:27;;;;;;;;;24.75;22.75;;;;;;;;4984377;28;8879;-83
2021/06/22 03:17:55;;;;;;;;;27.50;21.50;;;;;;;;4982579;28;8911;-87
2021/06/22 03:20:22;;;;;;;;;22.50;20.50;;;;;;;;4986959;28;8897;-82
2021/06/22 03:22:51;;;;;;;;;23.50;23.00;;;;;;;;4985026;28;8898;-83
2021/06/22 03:25:18;;;;;;;;;25.00;23.75;;;;;;;;4987065;28;8867;-82
2021/06/22 03:27:46;;;;;;;;;23.00;22.25;;;;;;;;4984549;28;8892;-83
2021/06/22 03:30:15;;;;;;;;;24.25;24.25;;;;;;;;4985113;28;9019;-85
2021/06/22 03:32:45;;;;;;;;;23.00;23.00;;;;;;;;5000426;28;9001;-83
2021/06/22 03:35:14;;;;;;;;;22.50;20.50;;;;;;;;4985816;28;8863;-83
2021/06/22 03:37:41;;;;;;;;;28.00;25.00;;;;;;;;4991250;28;8995;-86
2021/06/22 03:40:11;;;;;;;;;24.75;24.75;;;;;;;;4983870;28;8977;-83
2021/06/22 03:42:39;;;;;;;;;21.25;21.25;;;;;;;;4986095;28;8870;-82
2021/06/22 03:45:08;;;;;;;;;26.00;25.25;;;;;;;;4987375;28;9029;-86
2021/06/22 03:47:35;;;;;;;;;23.75;23.00;;;;;;;;4988152;28;8987;-89
2021/06/22 03:50:03;;;;;;;;;19.75;17.50;;;;;;;;4985191;28;8879;-85
2021/06/22 03:52:31;;;;;;;;;22.25;22.25;;;;;;;;4983063;28;8990;-86
2021/06/22 03:54:58;;;;;;;;;22.25;22.25;;;;;;;;4982873;28;8887;-86
2021/06/22 03:57:27;;;;;;;;;25.50;24.50;;;;;;;;4984354;28;8882;-89
2021/06/22 03:59:55;;;;;;;;;28.00;24.00;;;;;;;;5005101;28;8861;-84
2021/06/22 04:02:22;;;;;;;;;28.00;26.00;;;;;;;;4986642;28;8846;-86
2021/06/22 04:04:50;;;;;;;;;22.25;21.75;;;;;;;;4986079;28;8863;-85
2021/06/22 04:07:17;;;;;;;;;16.50;14.25;;;;;;;;4981365;28;8917;-85
2021/06/22 04:12:28;;;;;;;;;27.25;27.25;;;;;;;;4980713;28;8874;-86
2021/06/22 04:14:55;;;;;;;;;16.50;16.00;;;;;;;;4984100;28;8904;-82
2021/06/22 04:17:22;;;;;;;;;30.50;28.50;;;;;;;;4986174;28;8867;-86
2021/06/22 04:19:51;;;;;;;;;31.50;27.25;;;;;;;;4982388;28;8890;-82
2021/06/22 04:22:19;;;;;;;;;30.00;28.50;;;;;;;;4984023;28;8843;-83
2021/06/22 04:24:46;;;;;;;;;31.00;29.00;;;;;;;;4983550;28;8916;-83
2021/06/22 04:27:13;;;;;;;;;31.75;26.75;;;;;;;;4984900;28;8881;-84
2021/06/22 04:32:26;;;;;;;;;19.50;18.00;;;;;;;;4977397;28;8880;-83
2021/06/22 04:34:54;;;;;;;;;34.25;31.25;;;;;;;;5003763;28;8867;-82
2021/06/22 04:37:21;;;;;;;;;34.00;30.25;;;;;;;;4984129;28;8886;-82
2021/06/22 04:39:48;;;;;;;;;32.00;29.75;;;;;;;;4982486;28;8885;-82
2021/06/22 04:42:16;;;;;;;;;33.50;30.50;;;;;;;;4985131;28;9668;-82
2021/06/22 04:44:45;;;;;;;;;28.75;28.25;;;;;;;;4982939;28;8890;-83
2021/06/22 04:47:12;;;;;;;;;38.25;33.50;;;;;;;;4982816;28;8871;-82
2021/06/22 04:49:40;;;;;;;;;36.00;29.75;;;;;;;;4986002;28;9635;-83
2021/06/22 04:52:09;;;;;;;;;30.75;27.50;;;;;;;;4981751;28;8874;-84
2021/06/22 04:54:37;;;;;;;;;31.00;31.00;;;;;;;;4978572;28;9297;-84
2021/06/22 04:57:05;;;;;;;;;33.75;32.25;;;;;;;;4984720;28;8867;-83
2021/06/22 04:59:33;;;;;;;;;28.00;26.00;;;;;;;;4983634;28;8901;-85
2021/06/22 05:02:03;;;;;;;;;29.50;29.50;;;;;;;;4982465;28;8847;-83
2021/06/22 05:04:31;;;;;;;;;29.00;29.00;;;;;;;;4983737;28;8848;-83
2021/06/22 05:06:58;;;;;;;;;26.25;25.00;;;;;;;;4987560;28;9679;-86
2021/06/22 05:09:26;;;;;;;;;36.50;31.25;;;;;;;;4983468;28;8909;-82
2021/06/22 05:11:53;;;;;;;;;33.25;30.25;;;;;;;;4981267;28;8886;-86
2021/06/22 05:14:21;;;;;;;;;31.75;30.00;;;;;;;;4984289;28;8909;-83
2021/06/22 05:16:49;;;;;;;;;31.25;30.00;;;;;;;;4982453;28;8862;-82
2021/06/22 05:21:59;;;;;;;;;32.25;31.75;;;;;;;;4981644;28;9069;-82
2021/06/22 05:24:27;;;;;;;;;26.75;25.75;;;;;;;;4987086;28;8867;-84
2021/06/22 05:26:54;;;;;;;;;29.75;28.25;;;;;;;;4982957;28;8933;-85
2021/06/22 05:29:21;;;;;;;;;25.75;23.75;;;;;;;;4982992;28;9625;-84
2021/06/22 05:31:48;;;;;;;;;24.50;22.75;;;;;;;;4983789;28;8856;-89
2021/06/22 05:34:17;;;;;;;;;25.00;23.25;;;;;;;;4984586;28;8887;-86
2021/06/22 05:36:44;;;;;;;;;26.75;26.00;;;;;;;;4982087;28;9625;-82
2021/06/22 05:39:12;;;;;;;;;28.75;24.50;;;;;;;;4975920;28;8905;-84
2021/06/22 05:41:39;;;;;;;;;22.50;21.75;;;;;;;;4986988;28;8879;-86
2021/06/22 05:44:07;;;;;;;;;24.25;22.00;;;;;;;;4985077;28;8879;-82
2021/06/22 05:46:34;;;;;;;;;24.25;22.00;;;;;;;;4985136;28;8882;-79
2021/06/22 05:49:02;;;;;;;;;19.75;19.75;;;;;;;;4983916;28;8965;-79
2021/06/22 05:51:31;;;;;;;;;21.75;20.75;;;;;;;;4988653;28;8891;-79
2021/06/22 05:53:58;;;;;;;;;18.00;17.50;;;;;;;;4988570;28;8867;-79
2021/06/22 05:56:26;;;;;;;;;26.00;24.50;;;;;;;;4980792;28;8893;-79
2021/06/22 05:58:53;;;;;;;;;25.75;21.50;;;;;;;;4989563;28;8883;-79
2021/06/22 06:01:20;;;;;;;;;26.50;23.50;;;;;;;;4988619;28;8855;-80
2021/06/22 06:03:47;;;;;;;;;22.00;21.50;;;;;;;;4988541;28;9001;-81
2021/06/22 06:06:14;;;;;;;;;25.25;23.75;;;;;;;;4989665;28;8885;-72
2021/06/22 06:08:44;;;;;;;;;26.00;25.25;;;;;;;;4988096;28;8875;-75
2021/06/22 06:11:11;;;;;;;;;28.25;25.25;;;;;;;;4989665;28;8851;-74
2021/06/22 06:13:39;;;;;;;;;23.00;23.00;;;;;;;;4989421;28;8858;-79
2021/06/22 06:16:07;;;;;;;;;23.25;22.00;;;;;;;;4991026;28;8898;-72
2021/06/22 06:18:34;;;;;;;;;25.25;25.25;;;;;;;;4984912;28;8890;-72
2021/06/22 06:21:02;;;;;;;;;25.75;21.50;;;;;;;;4991052;28;8936;-84
2021/06/22 06:23:32;;;;;;;;;22.00;22.00;;;;;;;;4988422;28;8835;-74
2021/06/22 06:26:01;;;;;;;;;26.50;26.50;;;;;;;;4989037;28;8883;-81
2021/06/22 06:28:32;;;;;;;;;29.75;28.25;;;;;;;;4987734;28;8992;-79
2021/06/22 06:30:59;;;;;;;;;25.25;23.00;;;;;;;;4989350;28;8912;-78
2021/06/22 06:33:27;;;;;;;;;24.25;21.50;;;;;;;;4989938;28;8932;-77
2021/06/22 06:35:54;;;;;;;;;29.50;23.50;;;;;;;;4989387;28;8902;-73
2021/06/22 06:38:21;;;;;;;;;23.25;22.00;;;;;;;;4989122;28;8976;-73
2021/06/22 06:40:48;;;;;;;;;24.25;24.00;;;;;;;;4989539;28;8870;-75
2021/06/22 06:43:17;;;;;;;;;27.50;25.50;;;;;;;;4989032;28;8858;-72
2021/06/22 06:45:45;;;;;;;;;23.50;23.50;;;;;;;;4981204;28;8851;-80
2021/06/22 06:48:12;;;;;;;;;27.75;26.25;;;;;;;;4989844;28;8929;-76
2021/06/22 06:50:40;;;;;;;;;27.25;24.75;;;;;;;;4990391;28;8890;-71
2021/06/22 06:53:07;;;;;;;;;18.50;18.50;;;;;;;;4987706;28;9721;-71
2021/06/22 06:55:38;;;;;;;;;25.00;23.25;;;;;;;;4990779;28;8878;-72
2021/06/22 06:58:06;;;;;;;;;27.25;23.50;;;;;;;;4987585;28;8867;-77
2021/06/22 07:00:37;;;;;;;;;20.75;19.50;;;;;;;;4989724;28;8803;-74
2021/06/22 07:03:05;;;;;;;;;22.75;22.75;;;;;;;;4985680;28;8928;-75
2021/06/22 07:05:33;;;;;;;;;25.75;25.25;;;;;;;;4972524;28;8892;-79
2021/06/22 07:08:00;;;;;;;;;24.75;23.75;;;;;;;;4982875;28;8871;-79
2021/06/22 07:10:28;;;;;;;;;20.25;20.00;;;;;;;;4985195;28;8925;-75
2021/06/22 07:12:58;;;;;;;;;22.00;22.00;;;;;;;;4981436;28;8977;-80
2021/06/22 07:15:25;;;;;;;;;24.00;20.75;;;;;;;;4984719;28;8981;-76
2021/06/22 07:17:54;;;;;;;;;23.25;21.75;;;;;;;;4983993;28;8866;-72
2021/06/22 07:20:22;;;;;;;;;26.75;20.00;;;;;;;;4983694;28;8901;-78
2021/06/22 07:22:49;;;;;;;;;26.50;22.25;;;;;;;;4983779;28;8862;-75
2021/06/22 07:25:18;;;;;;;;;20.25;20.25;;;;;;;;4983855;28;8938;-76
2021/06/22 07:27:46;;;;;;;;;20.75;20.00;;;;;;;;4984275;28;8862;-76
2021/06/22 07:30:15;;;;;;;;;21.50;20.00;;;;;;;;4985240;28;9666;-79
2021/06/22 07:32:43;;;;;;;;;23.25;23.00;;;;;;;;4983779;28;8861;-77
2021/06/22 07:35:14;;;;;;;;;18.00;13.25;;;;;;;;4984284;28;8882;-77
2021/06/22 07:37:41;;;;;;;;;19.25;18.25;;;;;;;;4985709;28;8863;-78
2021/06/22 07:40:10;;;;;;;;;16.00;14.25;;;;;;;;4983836;28;9645;-79
2021/06/22 07:42:38;;;;;;;;;16.25;15.00;;;;;;;;4981743;28;8867;-78
2021/06/22 07:45:07;;;;;;;;;16.00;15.00;;;;;;;;4983808;28;9669;-79
2021/06/22 07:47:34;;;;;;;;;19.50;16.25;;;;;;;;4983494;28;8892;-77
2021/06/22 07:50:01;;;;;;;;;20.25;18.00;;;;;;;;4984604;28;8874;-74
2021/06/22 07:52:30;;;;;;;;;14.00;14.00;;;;;;;;4982782;28;9496;-73
2021/06/22 07:54:57;;;;;;;;;15.50;15.50;;;;;;;;4985439;28;8898;-78
2021/06/22 07:57:25;;;;;;;;;15.00;14.75;;;;;;;;4982141;28;8878;-79
2021/06/22 07:59:52;;;;;;;;;15.50;14.25;;;;;;;;4984502;28;8866;-73
2021/06/22 08:02:19;;;;;;;;;15.00;13.25;;;;;;;;4983015;28;8839;-74
2021/06/22 08:04:46;;;;;;;;;16.25;15.75;;;;;;;;4984152;28;8892;-76
2021/06/22 08:07:14;;;;;;;;;15.00;15.00;;;;;;;;4983076;28;8896;-76
2021/06/22 08:09:43;;;;;;;;;13.00;13.00;;;;;;;;4985405;28;8870;-83
2021/06/22 08:12:11;;;;;;;;;15.00;15.00;;;;;;;;4980859;28;8846;-76
2021/06/22 08:14:38;;;;;;;;;20.25;17.50;;;;;;;;4983672;28;8899;-85
2021/06/22 08:17:07;;;;;;;;;14.25;13.75;;;;;;;;4980378;28;8924;-84
2021/06/22 08:19:34;;;;;;;;;17.50;16.00;;;;;;;;4982596;28;8878;-85
2021/06/22 08:22:02;;;;;;;;;15.00;14.25;;;;;;;;4982584;28;9641;-85
2021/06/22 08:24:29;;;;;;;;;18.75;18.75;;;;;;;;4985478;28;8866;-86
2021/06/22 08:26:58;;;;;;;;;16.25;16.25;;;;;;;;4987399;28;8895;-87
2021/06/22 08:29:25;;;;;;;;;17.00;17.00;;;;;;;;4980639;28;8880;-85
2021/06/22 08:31:53;;;;;;;;;13.75;12.25;;;;;;;;4984089;28;8877;-82
2021/06/22 08:34:20;;;;;;;;;15.75;15.25;;;;;;;;4987449;28;8879;-83
2021/06/22 08:36:47;;;;;;;;;13.50;12.75;;;;;;;;4980369;28;9008;-83
2021/06/22 08:39:15;;;;;;;;;14.25;13.50;;;;;;;;4984349;28;9004;-84
2021/06/22 08:41:42;;;;;;;;;20.50;16.25;;;;;;;;4984722;28;8981;-83
2021/06/22 08:44:12;;;;;;;;;15.50;15.50;;;;;;;;4985850;28;8892;-83
2021/06/22 08:46:40;;;;;;;;;15.75;14.25;;;;;;;;4985832;28;8965;-80
2021/06/22 08:49:09;;;;;;;;;20.25;15.00;;;;;;;;4984735;28;8908;-85
2021/06/22 08:51:37;;;;;;;;;14.50;13.75;;;;;;;;4986114;28;8993;-84
2021/06/22 08:54:06;;;;;;;;;11.25;11.25;;;;;;;;4984466;28;9629;-83
2021/06/22 08:56:33;;;;;;;;;12.75;12.50;;;;;;;;4985506;28;9002;-85
2021/06/22 08:59:00;;;;;;;;;13.25;12.00;;;;;;;;4984057;28;9013;-82
2021/06/22 09:01:30;;;;;;;;;14.50;12.25;;;;;;;;4985207;28;8823;-86
2021/06/22 09:03:58;;;;;;;;;11.50;10.50;;;;;;;;4983580;28;8894;-84
2021/06/22 09:06:26;;;;;;;;;9.50;8.75;;;;;;;;4985425;28;8904;-85
2021/06/22 09:08:54;;;;;;;;;8.75;8.75;;;;;;;;4982502;28;8891;-82
2021/06/22 09:11:22;;;;;;;;;10.75;8.25;;;;;;;;4985179;28;8859;-85
2021/06/22 09:13:57;;;;;;;;;12.25;12.25;;;;;;;;4985900;28;8895;-81
2021/06/22 09:16:25;;;;;;;;;13.00;11.75;;;;;;;;4982770;28;8874;-84
2021/06/22 09:18:54;;;;;;;;;12.00;11.75;;;;;;;;4986278;28;8912;-83
2021/06/22 09:21:23;;;;;;;;;12.00;9.75;;;;;;;;4985503;28;9018;-84
2021/06/22 09:23:51;;;;;;;;;10.00;6.75;;;;;;;;4983850;28;8878;-82
2021/06/22 09:26:20;;;;;;;;;7.50;7.50;;;;;;;;4985656;28;8871;-84
2021/06/22 09:28:49;;;;;;;;;8.00;8.00;;;;;;;;4982369;28;8866;-84
2021/06/22 09:31:17;;;;;;;;;7.75;7.00;;;;;;;;4956281;28;8786;-81
2021/06/22 09:33:48;;;;;;;;;7.00;7.00;;;;;;;;4975127;28;8871;-83
2021/06/22 09:36:20;;;;;;;;;7.75;6.75;;;;;;;;4983151;28;9723;-81
2021/06/22 09:38:51;;;;;;;;;8.00;7.00;;;;;;;;4980443;28;8858;-84
2021/06/22 09:41:22;;;;;;;;;8.00;6.00;;;;;;;;4981752;28;8880;-83
2021/06/22 09:43:51;;;;;;;;;8.00;8.00;;;;;;;;4990396;28;9050;-85
2021/06/22 09:46:31;;;;;;;;;5.25;5.25;;;;;;;;4983277;28;8893;-86
2021/06/22 09:49:00;;;;;;;;;6.50;5.00;;;;;;;;4972546;28;8867;-85
2021/06/22 09:51:35;;;;;;;;;11.50;10.50;;;;;;;;4982587;28;9012;-83
2021/06/22 09:54:11;;;;;;;;;9.25;9.00;;;;;;;;4984486;28;8895;-84
2021/06/22 09:56:39;;;;;;;;;11.00;9.25;;;;;;;;4975775;28;8915;-85
2021/06/22 09:59:09;;;;;;;;;8.00;8.00;;;;;;;;4979707;28;9020;-85
2021/06/22 10:01:38;;;;;;;;;9.75;7.00;;;;;;;;4985214;28;8842;-83
2021/06/22 10:04:16;;;;;;;;;9.50;7.50;;;;;;;;4976813;28;8873;-82
2021/06/22 10:06:53;;;;;;;;;7.00;7.00;;;;;;;;4975599;28;8858;-83
2021/06/22 10:09:28;;;;;;;;;11.25;9.50;;;;;;;;4970877;28;8972;-85
2021/06/22 10:12:05;;;;;;;;;12.75;11.00;;;;;;;;4968594;28;8886;-85
2021/06/22 10:14:33;;;;;;;;;8.50;7.50;;;;;;;;4984295;28;8977;-83
2021/06/22 10:17:03;;;;;;;;;8.75;8.00;;;;;;;;4983533;28;8871;-80
2021/06/22 10:19:31;;;;;;;;;11.50;9.75;;;;;;;;4985311;28;8890;-80
2021/06/22 10:22:02;;;;;;;;;9.00;7.75;;;;;;;;4978344;28;8898;-80
2021/06/22 10:24:30;;;;;;;;;12.25;9.25;;;;;;;;4982416;28;8878;-85
2021/06/22 10:26:59;;;;;;;;;12.25;10.50;;;;;;;;4984974;28;8851;-82
2021/06/22 10:29:28;;;;;;;;;6.50;5.25;;;;;;;;4984203;28;8893;-84
2021/06/22 10:31:57;;;;;;;;;9.75;7.25;;;;;;;;4984731;28;8950;-86
2021/06/22 10:34:24;;;;;;;;;6.75;6.75;;;;;;;;4985062;28;8858;-83
2021/06/22 10:36:59;;;;;;;;;12.25;10.50;;;;;;;;4984840;28;8906;-82
2021/06/22 10:39:30;;;;;;;;;4.00;4.00;;;;;;;;4985889;28;8867;-83
2021/06/22 10:41:59;;;;;;;;;10.75;8.75;;;;;;;;4985331;28;8948;-86
2021/06/22 10:44:46;;;;;;;;;13.50;10.00;;;;;;;;4986449;28;8838;-87
2021/06/22 10:47:36;;;;;;;;;7.00;7.00;;;;;;;;4986108;28;9029;-78
2021/06/22 10:50:15;;;;;;;;;12.50;10.75;;;;;;;;4997831;28;8895;-81
2021/06/22 10:52:58;;;;;;;;;11.00;10.00;;;;;;;;4985054;28;9692;-81
2021/06/22 10:56:04;;;;;;;;;14.75;11.25;;;;;;;;4988363;28;8928;-83
2021/06/22 10:58:32;;;;;;;;;14.00;12.75;;;;;;;;4985301;28;8882;-82
2021/06/22 11:01:18;;;;;;;;;13.50;12.25;;;;;;;;4984484;28;8822;-85
2021/06/22 11:03:45;;;;;;;;;10.50;9.00;;;;;;;;4984420;28;8879;-82
2021/06/22 11:06:26;;;;;;;;;11.75;10.00;;;;;;;;4985918;28;8981;-86
2021/06/22 11:09:16;;;;;;;;;12.25;12.25;;;;;;;;4992700;28;8860;-80
2021/06/22 11:11:44;;;;;;;;;11.75;11.75;;;;;;;;4983056;28;8957;-83
2021/06/22 11:14:12;;;;;;;;;11.00;11.00;;;;;;;;4985079;28;8900;-81
2021/06/22 11:16:40;;;;;;;;;11.75;10.25;;;;;;;;4990092;28;9668;-85
2021/06/22 11:19:12;;;;;;;;;11.50;10.00;;;;;;;;4987396;28;8850;-81
2021/06/22 11:21:53;;;;;;;;;11.00;11.00;;;;;;;;4985628;28;8886;-77
2021/06/22 11:24:26;;;;;;;;;11.00;8.50;;;;;;;;4985289;28;9037;-83
2021/06/22 11:27:04;;;;;;;;;8.75;8.00;;;;;;;;4986767;28;8921;-83
2021/06/22 11:29:51;;;;;;;;;12.00;12.00;;;;;;;;4987271;28;8886;-84
2021/06/22 11:32:37;;;;;;;;;11.00;9.00;;;;;;;;4982094;28;8823;-85
2021/06/22 11:35:09;;;;;;;;;9.75;9.75;;;;;;;;4986405;28;8910;-83
2021/06/22 11:37:36;;;;;;;;;11.50;9.00;;;;;;;;5004026;28;8856;-83
2021/06/22 11:40:09;;;;;;;;;10.50;9.75;;;;;;;;4986696;28;8886;-81
2021/06/22 11:42:38;;;;;;;;;11.00;11.00;;;;;;;;4992325;28;8875;-80
2021/06/22 11:45:23;;;;;;;;;6.50;6.50;;;;;;;;4986051;28;9706;-80
2021/06/22 11:47:56;;;;;;;;;12.75;12.75;;;;;;;;4984839;28;9680;-81
2021/06/22 11:50:29;;;;;;;;;15.00;11.75;;;;;;;;4980795;28;9001;-81
2021/06/22 11:53:11;;;;;;;;;12.00;11.00;;;;;;;;4984514;28;8892;-81
2021/06/22 11:55:48;;;;;;;;;14.25;11.75;;;;;;;;4981745;28;9013;-81
2021/06/22 11:58:23;;;;;;;;;14.50;12.75;;;;;;;;4984045;28;8843;-80
2021/06/22 12:00:52;;;;;;;;;11.50;11.50;;;;;;;;4980173;28;8823;-81
2021/06/22 12:03:21;;;;;;;;;14.25;12.50;;;;;;;;4984103;28;8914;-79
2021/06/22 12:05:48;;;;;;;;;13.25;12.00;;;;;;;;4983301;28;9671;-80
2021/06/22 12:08:16;;;;;;;;;11.50;11.25;;;;;;;;4984885;28;8871;-80
2021/06/22 12:10:57;;;;;;;;;8.50;8.50;;;;;;;;4983552;28;8870;-81
2021/06/22 12:13:32;;;;;;;;;13.00;11.50;;;;;;;;4983181;28;8899;-79
2021/06/22 12:16:00;;;;;;;;;11.75;11.75;;;;;;;;4984346;28;8887;-80
2021/06/22 12:18:29;;;;;;;;;12.00;12.00;;;;;;;;4984628;28;8873;-82
2021/06/22 12:20:57;;;;;;;;;14.00;14.00;;;;;;;;4982021;28;8870;-80
2021/06/22 12:23:24;;;;;;;;;13.00;13.00;;;;;;;;4982179;28;8929;-79
2021/06/22 12:25:55;;;;;;;;;12.75;12.75;;;;;;;;4983227;28;8909;-80
2021/06/22 12:28:24;;;;;;;;;5.50;5.50;;;;;;;;4980300;28;8879;-79
2021/06/22 12:30:56;;;;;;;;;8.50;8.50;;;;;;;;4982616;28;8839;-79
2021/06/22 12:33:25;;;;;;;;;12.75;10.50;;;;;;;;4983140;28;8870;-80
2021/06/22 12:35:54;;;;;;;;;6.00;6.00;;;;;;;;4980741;28;10070;-78
2021/06/22 12:38:23;;;;;;;;;9.75;9.75;;;;;;;;4983010;28;8916;-79
2021/06/22 12:40:56;;;;;;;;;8.25;8.25;;;;;;;;4982057;28;8873;-82
2021/06/22 12:43:43;;;;;;;;;10.25;9.75;;;;;;;;4983678;28;8896;-82
2021/06/22 12:46:11;;;;;;;;;7.25;7.25;;;;;;;;4983715;28;9629;-84
2021/06/22 12:48:38;;;;;;;;;12.00;8.00;;;;;;;;4983031;28;8894;-83
2021/06/22 12:51:06;;;;;;;;;11.50;8.00;;;;;;;;4983069;28;8993;-82
2021/06/22 12:53:34;;;;;;;;;8.50;8.50;;;;;;;;4965547;28;8875;-81
2021/06/22 12:56:10;;;;;;;;;6.00;6.00;;;;;;;;4983865;28;8904;-81
2021/06/22 12:58:52;;;;;;;;;7.00;5.75;;;;;;;;4981704;28;8993;-82
2021/06/22 13:01:37;;;;;;;;;5.25;5.25;;;;;;;;4979817;28;8815;-81
2021/06/22 13:04:06;;;;;;;;;4.50;4.50;;;;;;;;4983955;28;8901;-81
2021/06/22 13:06:35;;;;;;;;;6.00;6.00;;;;;;;;4978556;28;8878;-79
2021/06/22 13:09:05;;;;;;;;;6.25;6.25;;;;;;;;4983363;28;9041;-81
2021/06/22 13:11:35;;;;;;;;;8.50;7.00;;;;;;;;4980808;28;8870;-83
2021/06/22 13:14:14;;;;;;;;;5.25;5.25;;;;;;;;4982134;28;9037;-83
2021/06/22 13:16:43;;;;;;;;;5.00;5.00;;;;;;;;4982379;28;8882;-79
2021/06/22 13:19:11;;;;;;;;;7.50;6.00;;;;;;;;4982143;28;8886;-80
2021/06/22 13:21:45;;;;;;;;;10.50;6.75;;;;;;;;4978867;28;8887;-78
2021/06/22 13:24:14;;;;;;;;;5.75;4.50;;;;;;;;4981378;28;9616;-80
2021/06/22 13:26:43;;;;;;;;;5.50;4.50;;;;;;;;4982391;28;8859;-77
2021/06/22 13:29:12;;;;;;;;;9.75;8.00;;;;;;;;4982087;28;8877;-77
2021/06/22 13:31:39;;;;;;;;;5.50;5.50;;;;;;;;4977154;28;8831;-78
2021/06/22 13:34:09;;;;;;;;;5.50;5.50;;;;;;;;4983351;28;8894;-77
2021/06/22 13:36:39;;;;;;;;;5.75;5.75;;;;;;;;4979983;28;8993;-79
2021/06/22 13:39:12;;;;;;;;;5.75;5.75;;;;;;;;4982935;28;8854;-80
2021/06/22 13:41:50;;;;;;;;;7.50;6.75;;;;;;;;4984620;28;8878;-78
2021/06/22 13:44:38;;;;;;;;;7.25;7.25;;;;;;;;4972440;28;8879;-81
2021/06/22 13:47:06;;;;;;;;;7.00;7.00;;;;;;;;4984684;28;8889;-78
2021/06/22 13:49:38;;;;;;;;;5.75;5.75;;;;;;;;4982963;28;8879;-83
2021/06/22 13:52:05;;;;;;;;;7.00;7.00;;;;;;;;4985071;28;8871;-79
2021/06/22 13:54:33;;;;;;;;;6.50;6.50;;;;;;;;4977771;28;8978;-83
2021/06/22 13:57:04;;;;;;;;;7.25;7.00;;;;;;;;4984930;28;8882;-82
2021/06/22 13:59:31;;;;;;;;;6.50;6.00;;;;;;;;4984743;28;9009;-81
2021/06/22 14:01:59;;;;;;;;;9.50;8.75;;;;;;;;4983038;28;8877;-85
2021/06/22 14:04:26;;;;;;;;;6.25;6.25;;;;;;;;4982168;28;9004;-86
2021/06/22 14:06:54;;;;;;;;;7.00;7.00;;;;;;;;4984117;28;8863;-84
2021/06/22 14:09:21;;;;;;;;;5.25;5.25;;;;;;;;4985364;28;8894;-80
2021/06/22 14:11:49;;;;;;;;;7.00;7.00;;;;;;;;4984091;28;8918;-83
2021/06/22 14:14:18;;;;;;;;;7.00;7.00;;;;;;;;4990477;28;8910;-88
2021/06/22 14:16:45;;;;;;;;;7.75;7.75;;;;;;;;4992325;28;8850;-86
2021/06/22 14:19:17;;;;;;;;;6.75;6.75;;;;;;;;4990107;28;8945;-90
2021/06/22 14:21:45;;;;;;;;;7.00;7.00;;;;;;;;4988473;28;8870;-87
2021/06/22 14:24:12;;;;;;;;;6.00;6.00;;;;;;;;4985334;28;8985;-85
2021/06/22 14:26:42;;;;;;;;;8.00;8.00;;;;;;;;4992486;28;8882;-85
2021/06/22 14:29:09;;;;;;;;;7.00;7.00;;;;;;;;4987721;28;8947;-77
2021/06/22 14:31:40;;;;;;;;;8.00;6.75;;;;;;;;4987988;28;8981;-77
2021/06/22 14:34:07;;;;;;;;;7.75;7.75;;;;;;;;4982968;28;8861;-80
2021/06/22 14:36:35;;;;;;;;;7.00;7.00;;;;;;;;4979447;28;8906;-81
2021/06/22 14:39:02;;;;;;;;;5.00;5.00;;;;;;;;4987862;28;8862;-82
2021/06/22 14:41:29;;;;;;;;;5.50;4.00;;;;;;;;4980414;28;8868;-79
2021/06/22 14:43:56;;;;;;;;;6.75;6.75;;;;;;;;4987311;28;8960;-82
2021/06/22 14:46:27;;;;;;;;;7.25;7.25;;;;;;;;4986348;28;8909;-80
2021/06/22 14:48:57;;;;;;;;;5.75;5.75;;;;;;;;4986000;28;8940;-82
2021/06/22 14:51:24;;;;;;;;;4.25;3.25;;;;;;;;4988293;28;8977;-79
2021/06/22 14:53:52;;;;;;;;;7.50;7.25;;;;;;;;4984140;28;8883;-79
2021/06/22 14:56:19;;;;;;;;;7.75;7.75;;;;;;;;4991911;28;8859;-83